createdAt,value
2022-12-18T00:02:04.574Z,51.60
2022-12-18T00:04:33.151Z,50.63
2022-12-18T00:07:01.304Z,47.65
2022-12-18T00:09:31.179Z,46.55
2022-12-18T00:14:43.858Z,51.35
2022-12-18T00:17:11.945Z,45.45
2022-12-18T00:19:39.940Z,50.70
2022-12-18T00:22:08.176Z,46.03
2022-12-18T00:24:36.614Z,49.47
2022-12-18T00:27:04.947Z,47.28
2022-12-18T00:29:34.515Z,48.55
2022-12-18T00:32:02.830Z,45.22
2022-12-18T00:34:31.024Z,49.17
2022-12-18T00:36:59.043Z,47.80
2022-12-18T00:39:27.268Z,43.60
2022-12-18T00:42:12.530Z,42.75
2022-12-18T00:44:42.726Z,51.65
2022-12-18T00:47:10.739Z,46.47
2022-12-18T00:49:38.727Z,46.38
2022-12-18T00:52:06.967Z,46.35
2022-12-18T00:54:35.014Z,46.72
2022-12-18T00:57:03.700Z,45.10
2022-12-18T00:59:32.131Z,45.50
2022-12-18T01:02:01.677Z,41.03
2022-12-18T01:04:29.847Z,45.60
2022-12-18T01:07:00.519Z,43.17
2022-12-18T01:09:28.903Z,41.47
2022-12-18T01:11:59.964Z,46.23
2022-12-18T01:14:28.043Z,42.10
2022-12-18T01:16:56.121Z,44.20
2022-12-18T01:19:25.617Z,43.35
2022-12-18T01:21:53.690Z,39.63
2022-12-18T01:24:21.973Z,41.63
2022-12-18T01:26:49.998Z,44.15
2022-12-18T01:29:18.025Z,40.65
2022-12-18T01:31:46.237Z,47.35
2022-12-18T01:34:14.335Z,39.10
2022-12-18T01:36:43.777Z,45.60
2022-12-18T01:39:14.486Z,43.00
2022-12-18T01:42:00.801Z,42.60
2022-12-18T01:45:02.038Z,42.47
2022-12-18T01:47:35.561Z,47.00
2022-12-18T01:50:06.650Z,45.50
2022-12-18T01:52:37.989Z,42.60
2022-12-18T01:55:08.919Z,42.67
2022-12-18T01:57:37.502Z,43.15
2022-12-18T02:00:10.003Z,39.65
2022-12-18T02:02:38.242Z,43.05
2022-12-18T02:05:08.082Z,43.67
2022-12-18T02:07:47.096Z,48.97
2022-12-18T02:10:21.965Z,47.22
2022-12-18T02:12:57.343Z,42.47
2022-12-18T02:15:34.297Z,42.95
2022-12-18T02:18:07.931Z,43.15
2022-12-18T02:20:42.100Z,45.30
2022-12-18T02:23:26.530Z,39.33
2022-12-18T02:26:09.733Z,38.67
2022-12-18T02:28:44.293Z,41.72
2022-12-18T02:31:16.438Z,39.58
2022-12-18T02:36:16.867Z,37.28
2022-12-18T02:38:46.770Z,37.33
2022-12-18T02:41:18.753Z,42.58
2022-12-18T02:43:52.675Z,38.38
2022-12-18T02:46:39.853Z,39.75
2022-12-18T02:49:18.900Z,37.17
2022-12-18T02:51:54.931Z,38.65
2022-12-18T02:54:44.764Z,37.65
2022-12-18T02:57:19.353Z,34.70
2022-12-18T02:59:55.503Z,38.88
2022-12-18T03:02:29.173Z,34.05
2022-12-18T03:05:03.200Z,37.55
2022-12-18T03:07:39.200Z,36.83
2022-12-18T03:10:14.046Z,33.03
2022-12-18T03:12:48.867Z,31.83
2022-12-18T03:15:22.818Z,32.55
2022-12-18T03:17:57.323Z,31.80
2022-12-18T03:20:31.393Z,33.85
2022-12-18T03:23:06.303Z,31.90
2022-12-18T03:25:36.908Z,32.75
2022-12-18T03:28:10.507Z,35.75
2022-12-18T03:30:42.631Z,33.97
2022-12-18T03:35:43.910Z,32.28
2022-12-18T03:38:12.869Z,32.67
2022-12-18T03:40:52.852Z,30.83
2022-12-18T03:43:33.586Z,29.13
2022-12-18T03:46:09.329Z,32.22
2022-12-18T03:48:43.957Z,31.58
2022-12-18T03:51:17.358Z,35.03
2022-12-18T03:53:53.766Z,30.52
2022-12-18T03:56:24.807Z,31.42
2022-12-18T03:58:55.876Z,31.45
2022-12-18T04:01:31.528Z,29.92
2022-12-18T04:04:02.746Z,31.20
2022-12-18T04:06:31.961Z,30.90
2022-12-18T04:09:01.163Z,29.90
2022-12-18T04:11:29.359Z,31.27
2022-12-18T04:13:59.617Z,33.60
2022-12-18T04:16:28.628Z,31.33
2022-12-18T04:18:56.898Z,29.98
2022-12-18T04:21:24.987Z,30.52
2022-12-18T04:23:53.186Z,24.30
2022-12-18T04:26:21.402Z,29.20
2022-12-18T04:28:49.500Z,30.33
2022-12-18T04:31:19.002Z,33.38
2022-12-18T04:33:47.138Z,31.83
2022-12-18T04:36:15.377Z,31.35
2022-12-18T04:38:43.351Z,25.75
2022-12-18T04:41:13.623Z,29.45
2022-12-18T04:43:41.926Z,26.65
2022-12-18T04:46:10.983Z,25.30
2022-12-18T04:48:40.630Z,25.27
2022-12-18T04:51:09.256Z,29.23
2022-12-18T04:53:37.709Z,28.40
2022-12-18T04:56:08.364Z,24.70
2022-12-18T04:58:36.691Z,29.98
2022-12-18T05:01:05.369Z,25.33
2022-12-18T05:03:33.906Z,26.85
2022-12-18T05:06:03.923Z,27.52
2022-12-18T05:08:32.397Z,23.23
2022-12-18T05:11:01.991Z,25.77
2022-12-18T05:13:30.306Z,25.95
2022-12-18T05:15:58.649Z,27.02
2022-12-18T05:18:29.934Z,23.65
2022-12-18T05:20:58.265Z,25.63
2022-12-18T05:23:28.756Z,24.25
2022-12-18T05:25:59.422Z,24.45
2022-12-18T05:28:30.436Z,20.95
2022-12-18T05:31:00.102Z,24.67
2022-12-18T05:33:30.776Z,21.65
2022-12-18T05:36:00.284Z,22.20
2022-12-18T05:38:31.521Z,20.45
2022-12-18T05:41:00.278Z,22.50
2022-12-18T05:43:29.938Z,24.15
2022-12-18T05:45:58.607Z,22.75
2022-12-18T05:48:26.753Z,21.85
2022-12-18T05:50:54.912Z,23.42
2022-12-18T05:53:23.263Z,22.52
2022-12-18T05:55:52.766Z,22.40
2022-12-18T05:58:20.874Z,21.83
2022-12-18T06:00:49.227Z,22.88
2022-12-18T06:03:17.328Z,23.60
2022-12-18T06:05:47.176Z,20.55
2022-12-18T06:08:15.754Z,22.38
2022-12-18T06:10:44.282Z,26.38
2022-12-18T06:13:13.733Z,24.33
2022-12-18T06:15:41.776Z,20.00
2022-12-18T06:18:12.786Z,21.55
2022-12-18T06:20:42.437Z,21.65
2022-12-18T06:23:10.803Z,22.92
2022-12-18T06:25:40.510Z,19.95
2022-12-18T06:28:08.633Z,21.27
2022-12-18T06:30:38.066Z,23.25
2022-12-18T06:33:06.204Z,19.85
2022-12-18T06:35:34.583Z,20.13
2022-12-18T06:38:03.595Z,21.95
2022-12-18T06:40:31.925Z,19.13
2022-12-18T06:43:00.010Z,21.95
2022-12-18T06:45:28.601Z,25.95
2022-12-18T06:48:00.268Z,19.63
2022-12-18T06:50:28.769Z,21.05
2022-12-18T06:52:56.932Z,23.33
2022-12-18T06:55:24.987Z,25.42
2022-12-18T06:57:53.466Z,21.35
2022-12-18T07:00:21.586Z,19.63
2022-12-18T07:02:52.588Z,21.40
2022-12-18T07:05:22.059Z,21.58
2022-12-18T07:07:50.239Z,22.08
2022-12-18T07:10:18.512Z,22.63
2022-12-18T07:12:49.276Z,23.08
2022-12-18T07:15:17.714Z,21.73
2022-12-18T07:17:45.770Z,22.15
2022-12-18T07:20:13.820Z,20.20
2022-12-18T07:22:45.512Z,24.85
2022-12-18T07:25:13.603Z,21.08
2022-12-18T07:27:41.670Z,23.88
2022-12-18T07:30:11.938Z,21.58
2022-12-18T07:32:40.010Z,24.30
2022-12-18T07:35:08.717Z,19.55
2022-12-18T07:37:36.749Z,25.35
2022-12-18T07:40:07.299Z,20.75
2022-12-18T07:42:35.927Z,21.70
2022-12-18T07:45:05.145Z,22.23
2022-12-18T07:47:33.215Z,21.38
2022-12-18T07:50:01.305Z,19.98
2022-12-18T07:52:29.379Z,21.40
2022-12-18T07:54:57.690Z,25.83
2022-12-18T07:57:49.579Z,21.10
2022-12-18T08:00:17.330Z,21.40
2022-12-18T08:02:46.091Z,20.67
2022-12-18T08:05:14.446Z,20.23
2022-12-18T08:07:42.536Z,20.83
2022-12-18T08:10:11.187Z,24.83
2022-12-18T08:12:40.741Z,23.20
2022-12-18T08:15:09.922Z,22.55
2022-12-18T08:17:37.994Z,21.67
2022-12-18T08:20:06.470Z,19.42
2022-12-18T08:22:36.393Z,20.75
2022-12-18T08:25:04.849Z,23.52
2022-12-18T08:27:33.459Z,21.67
2022-12-18T08:30:04.334Z,21.60
2022-12-18T08:32:34.208Z,23.10
2022-12-18T08:35:02.288Z,22.00
2022-12-18T08:37:30.400Z,20.77
2022-12-18T08:39:58.460Z,23.00
2022-12-18T08:42:44.239Z,20.88
2022-12-18T08:45:13.908Z,16.95
2022-12-18T08:47:41.965Z,19.55
2022-12-18T08:50:12.990Z,18.00
2022-12-18T08:52:41.123Z,18.65
2022-12-18T08:55:10.784Z,19.48
2022-12-18T08:57:39.017Z,18.38
2022-12-18T09:00:08.639Z,15.50
2022-12-18T09:02:38.133Z,19.15
2022-12-18T09:05:07.186Z,19.00
2022-12-18T09:07:35.396Z,19.17
2022-12-18T09:10:03.492Z,17.88
2022-12-18T09:12:31.539Z,18.30
2022-12-18T09:14:59.730Z,18.02
2022-12-18T09:17:28.033Z,16.85
2022-12-18T09:20:00.137Z,18.23
2022-12-18T09:22:28.368Z,16.85
2022-12-18T09:24:56.540Z,17.13
2022-12-18T09:27:24.682Z,16.38
2022-12-18T09:29:52.754Z,17.70
2022-12-18T09:32:22.584Z,16.02
2022-12-18T09:34:50.823Z,18.00
2022-12-18T09:37:20.281Z,15.63
2022-12-18T09:39:48.478Z,16.23
2022-12-18T09:42:22.552Z,16.23
2022-12-18T09:44:52.953Z,17.98
2022-12-18T09:47:26.454Z,15.50
2022-12-18T09:49:58.884Z,17.70
2022-12-18T09:52:32.696Z,17.00
2022-12-18T09:55:05.611Z,15.75
2022-12-18T09:57:35.721Z,19.23
2022-12-18T10:00:16.575Z,16.98
2022-12-18T10:02:44.839Z,16.05
2022-12-18T10:05:16.363Z,21.95
2022-12-18T10:07:58.659Z,19.43
2022-12-18T10:10:38.825Z,16.05
2022-12-18T10:13:23.659Z,16.88
2022-12-18T10:16:02.445Z,14.75
2022-12-18T10:18:49.731Z,18.13
2022-12-18T10:21:21.199Z,17.90
2022-12-18T10:24:02.546Z,16.83
2022-12-18T10:26:30.681Z,18.90
2022-12-18T10:29:05.318Z,17.10
2022-12-18T10:31:33.845Z,16.52
2022-12-18T10:34:02.012Z,14.57
2022-12-18T10:36:30.797Z,18.00
2022-12-18T10:39:17.099Z,18.73
2022-12-18T10:41:47.674Z,16.52
2022-12-18T10:44:20.147Z,16.83
2022-12-18T10:46:50.155Z,14.60
2022-12-18T10:49:24.357Z,21.75
2022-12-18T10:51:53.754Z,19.17
2022-12-18T10:54:25.960Z,18.20
2022-12-18T10:56:54.063Z,13.32
2022-12-18T10:59:22.171Z,18.55
2022-12-18T11:01:53.120Z,15.38
2022-12-18T11:04:23.981Z,14.52
2022-12-18T11:06:58.392Z,14.68
2022-12-18T11:09:29.349Z,15.80
2022-12-18T11:12:00.343Z,15.55
2022-12-18T11:14:31.170Z,16.30
2022-12-18T11:19:56.620Z,16.55
2022-12-18T11:22:28.902Z,15.57
2022-12-18T11:27:55.571Z,17.98
2022-12-18T11:30:26.553Z,18.23
2022-12-18T11:33:01.830Z,16.67
2022-12-18T11:35:40.507Z,18.70
2022-12-18T11:38:19.593Z,15.20
2022-12-18T11:40:56.301Z,16.85
2022-12-18T11:43:30.098Z,18.30
2022-12-18T11:46:03.784Z,16.08
2022-12-18T11:48:36.463Z,16.83
2022-12-18T11:51:07.703Z,19.13
2022-12-18T11:53:39.162Z,15.82
2022-12-18T11:56:28.475Z,14.97
2022-12-18T11:59:07.396Z,17.15
2022-12-18T12:01:47.757Z,15.77
2022-12-18T12:04:46.999Z,17.23
2022-12-18T12:07:25.860Z,13.70
2022-12-18T12:10:06.231Z,17.05
2022-12-18T12:12:48.941Z,14.20
2022-12-18T12:15:28.134Z,18.40
2022-12-18T12:18:09.660Z,15.05
2022-12-18T12:20:51.622Z,17.70
2022-12-18T12:23:31.683Z,16.92
2022-12-18T12:26:05.086Z,15.70
2022-12-18T12:28:59.487Z,16.92
2022-12-18T12:31:41.001Z,14.73
2022-12-18T12:34:19.236Z,16.00
2022-12-18T12:37:08.998Z,16.17
2022-12-18T12:39:40.349Z,16.10
2022-12-18T12:42:35.208Z,15.77
2022-12-18T12:45:08.908Z,15.48
2022-12-18T12:47:43.849Z,14.25
2022-12-18T12:50:18.745Z,18.95
2022-12-18T12:52:50.282Z,15.90
2022-12-18T12:55:22.465Z,15.13
2022-12-18T12:58:00.171Z,15.55
2022-12-18T13:00:36.152Z,14.57
2022-12-18T13:03:17.750Z,16.80
2022-12-18T13:05:52.110Z,18.35
2022-12-18T13:08:26.714Z,20.05
2022-12-18T13:11:19.012Z,15.07
2022-12-18T13:13:51.855Z,16.67
2022-12-18T13:16:24.511Z,16.83
2022-12-18T13:18:55.361Z,18.58
2022-12-18T13:21:28.232Z,15.32
2022-12-18T13:26:35.266Z,14.55
2022-12-18T13:29:07.450Z,15.60
2022-12-18T13:32:03.164Z,15.48
2022-12-18T13:34:33.656Z,14.82
2022-12-18T13:37:35.741Z,16.30
2022-12-18T13:40:04.531Z,17.60
2022-12-18T13:43:00.418Z,18.42
2022-12-18T13:45:40.974Z,15.65
2022-12-18T13:48:18.380Z,16.17
2022-12-18T13:50:54.145Z,17.02
2022-12-18T13:53:25.764Z,15.93
2022-12-18T13:55:56.509Z,18.27
2022-12-18T13:58:24.809Z,16.25
2022-12-18T14:00:53.096Z,16.85
2022-12-18T14:03:24.882Z,14.57
2022-12-18T14:06:02.494Z,16.33
2022-12-18T14:08:36.142Z,17.65
2022-12-18T14:11:06.597Z,18.15
2022-12-18T14:13:39.697Z,18.17
2022-12-18T14:18:45.337Z,15.88
2022-12-18T14:21:23.740Z,19.55
2022-12-18T14:24:04.727Z,19.45
2022-12-18T14:26:34.523Z,15.40
2022-12-18T14:29:19.766Z,18.98
2022-12-18T14:32:08.433Z,19.30
2022-12-18T14:34:40.464Z,18.35
2022-12-18T14:37:12.171Z,20.17
2022-12-18T14:39:40.261Z,18.55
2022-12-18T14:42:12.326Z,16.92
2022-12-18T14:45:05.135Z,17.67
2022-12-18T14:47:28.422Z,16.30
2022-12-18T14:49:56.537Z,17.58
2022-12-18T14:52:34.017Z,20.10
2022-12-18T14:55:02.044Z,19.75
2022-12-18T14:57:38.905Z,19.38
2022-12-18T15:00:08.698Z,19.35
2022-12-18T15:02:38.471Z,17.25
2022-12-18T15:05:20.022Z,23.60
2022-12-18T15:07:51.245Z,21.98
2022-12-18T15:10:22.147Z,18.63
2022-12-18T15:12:52.062Z,16.25
2022-12-18T15:15:48.983Z,17.60
2022-12-18T15:18:20.620Z,19.65
2022-12-18T15:20:51.256Z,19.70
2022-12-18T15:23:26.457Z,21.27
2022-12-18T15:25:58.587Z,20.50
2022-12-18T15:28:29.825Z,23.17
2022-12-18T15:31:07.416Z,19.73
2022-12-18T15:33:38.649Z,21.67
2022-12-18T15:36:10.952Z,21.48
2022-12-18T15:38:40.924Z,20.02
2022-12-18T15:41:18.865Z,21.55
2022-12-18T15:43:50.276Z,20.95
2022-12-18T15:46:20.643Z,21.95
2022-12-18T15:48:50.351Z,23.65
2022-12-18T15:51:21.061Z,23.77
2022-12-18T15:53:52.483Z,20.27
2022-12-18T15:56:38.578Z,22.20
2022-12-18T15:59:10.971Z,20.50
2022-12-18T16:01:42.537Z,22.83
2022-12-18T16:04:13.848Z,26.10
2022-12-18T16:07:05.631Z,22.73
2022-12-18T16:09:31.810Z,23.70
2022-12-18T16:12:02.729Z,26.08
2022-12-18T16:14:32.572Z,25.50
2022-12-18T16:17:03.026Z,22.30
2022-12-18T16:19:31.217Z,27.23
2022-12-18T16:22:00.216Z,24.02
2022-12-18T16:24:30.218Z,24.15
2022-12-18T16:27:01.256Z,22.38
2022-12-18T16:29:31.090Z,24.90
2022-12-18T16:32:02.966Z,25.50
2022-12-18T16:34:35.625Z,27.90
2022-12-18T16:37:06.537Z,25.10
2022-12-18T16:39:35.424Z,24.33
2022-12-18T16:42:06.949Z,23.15
2022-12-18T16:44:35.089Z,28.23
2022-12-18T16:47:04.087Z,23.33
2022-12-18T16:49:32.310Z,26.63
2022-12-18T16:52:00.270Z,26.85
2022-12-18T16:54:31.147Z,28.85
2022-12-18T16:56:59.286Z,25.08
2022-12-18T16:59:29.309Z,24.00
2022-12-18T17:01:58.411Z,27.02
2022-12-18T17:04:26.692Z,30.10
2022-12-18T17:06:54.768Z,25.63
2022-12-18T17:09:25.198Z,25.50
2022-12-18T17:11:53.973Z,23.85
2022-12-18T17:14:24.250Z,25.60
2022-12-18T17:17:19.879Z,28.38
2022-12-18T17:19:42.610Z,25.02
2022-12-18T17:22:10.678Z,31.25
2022-12-18T17:24:38.655Z,31.40
2022-12-18T17:27:07.541Z,27.67
2022-12-18T17:29:35.886Z,27.45
2022-12-18T17:32:05.875Z,25.42
2022-12-18T17:34:33.873Z,27.20
2022-12-18T17:37:01.937Z,31.05
2022-12-18T17:39:30.798Z,29.55
2022-12-18T17:41:59.929Z,26.75
2022-12-18T17:44:27.970Z,28.25
2022-12-18T17:46:56.413Z,27.20
2022-12-18T17:49:25.971Z,30.80
2022-12-18T17:51:54.140Z,28.10
2022-12-18T17:54:22.141Z,30.33
2022-12-18T17:56:50.213Z,28.60
2022-12-18T17:59:18.314Z,28.70
2022-12-18T18:01:46.894Z,30.92
2022-12-18T18:04:15.388Z,27.83
2022-12-18T18:06:44.809Z,29.48
2022-12-18T18:09:16.110Z,30.08
2022-12-18T18:12:02.574Z,26.48
2022-12-18T18:14:30.893Z,30.25
2022-12-18T18:16:59.212Z,29.50
2022-12-18T18:19:29.848Z,31.48
2022-12-18T18:22:01.525Z,29.73
2022-12-18T18:24:31.206Z,31.65
2022-12-18T18:27:00.091Z,28.42
2022-12-18T18:29:31.261Z,28.75
2022-12-18T18:31:59.884Z,28.35
2022-12-18T18:34:29.701Z,29.98
2022-12-18T18:36:59.429Z,29.23
2022-12-18T18:39:28.247Z,29.33
2022-12-18T18:41:57.299Z,29.63
2022-12-18T18:44:26.341Z,31.20
2022-12-18T18:46:56.082Z,28.23
2022-12-18T18:49:27.126Z,27.42
2022-12-18T18:51:55.865Z,29.83
2022-12-18T18:54:25.487Z,31.08
2022-12-18T18:59:42.702Z,29.83
2022-12-18T19:02:13.247Z,29.63
2022-12-18T19:04:46.320Z,30.83
2022-12-18T19:07:19.743Z,27.73
2022-12-18T19:10:05.037Z,30.30
2022-12-18T19:12:51.556Z,28.92
2022-12-18T19:15:19.826Z,30.00
2022-12-18T19:17:47.955Z,28.50
2022-12-18T19:20:16.777Z,33.65
2022-12-18T19:22:47.949Z,31.70
2022-12-18T19:25:38.217Z,32.45
2022-12-18T19:28:13.507Z,35.05
2022-12-18T19:30:54.529Z,31.52
2022-12-18T19:33:43.037Z,32.45
2022-12-18T19:36:13.769Z,32.60
2022-12-18T19:38:42.733Z,30.88
2022-12-18T19:41:15.546Z,31.55
2022-12-18T19:43:44.012Z,31.90
2022-12-18T19:46:15.348Z,31.15
2022-12-18T19:48:44.616Z,33.33
2022-12-18T19:51:15.794Z,34.60
2022-12-18T19:53:44.105Z,31.35
2022-12-18T19:56:15.653Z,32.67
2022-12-18T19:58:44.806Z,31.77
2022-12-18T20:01:16.752Z,33.45
2022-12-18T20:03:46.616Z,34.95
2022-12-18T20:06:26.152Z,35.08
2022-12-18T20:09:00.316Z,36.60
2022-12-18T20:11:31.052Z,34.70
2022-12-18T20:13:59.495Z,35.33
2022-12-18T20:16:27.813Z,35.08
2022-12-18T20:18:56.046Z,34.58
2022-12-18T20:21:24.155Z,35.70
2022-12-18T20:23:52.409Z,36.75
2022-12-18T20:26:20.742Z,36.13
2022-12-18T20:28:50.226Z,34.53
2022-12-18T20:31:18.272Z,35.40
2022-12-18T20:33:48.755Z,34.00
2022-12-18T20:36:23.409Z,35.28
2022-12-18T20:38:54.688Z,34.13
2022-12-18T20:41:25.483Z,30.55
2022-12-18T20:43:55.183Z,34.10
2022-12-18T20:46:23.523Z,35.80
2022-12-18T20:48:51.644Z,34.33
2022-12-18T20:51:21.967Z,35.58
2022-12-18T20:53:50.108Z,35.40
2022-12-18T20:56:21.508Z,36.10
2022-12-18T20:58:53.635Z,31.70
2022-12-18T21:01:25.552Z,32.78
2022-12-18T21:03:54.079Z,32.35
2022-12-18T21:06:23.852Z,32.90
2022-12-18T21:08:52.063Z,33.78
2022-12-18T21:12:01.811Z,35.75
2022-12-18T21:14:30.976Z,34.05
2022-12-18T21:17:02.093Z,33.85
2022-12-18T21:19:31.289Z,40.22
2022-12-18T21:22:00.022Z,36.60
2022-12-18T21:24:28.203Z,35.15
2022-12-18T21:27:01.853Z,36.85
2022-12-18T21:29:30.146Z,34.13
2022-12-18T21:31:58.376Z,35.78
2022-12-18T21:34:29.691Z,33.42
2022-12-18T21:36:59.532Z,40.13
2022-12-18T21:39:29.001Z,36.22
2022-12-18T21:42:15.717Z,36.15
2022-12-18T21:44:45.185Z,37.13
2022-12-18T21:47:21.441Z,34.88
2022-12-18T21:49:52.805Z,39.53
2022-12-18T21:52:21.674Z,40.67
2022-12-18T21:55:08.032Z,39.85
2022-12-18T21:57:38.003Z,44.65
2022-12-18T22:00:07.478Z,42.13
2022-12-18T22:02:35.904Z,42.22
2022-12-18T22:05:06.228Z,42.13
2022-12-18T22:07:35.089Z,36.88
2022-12-18T22:10:03.243Z,39.28
2022-12-18T22:12:44.396Z,40.25
2022-12-18T22:15:21.127Z,38.83
2022-12-18T22:17:50.367Z,44.35
2022-12-18T22:20:20.568Z,41.05
2022-12-18T22:22:51.617Z,40.80
2022-12-18T22:25:19.701Z,44.10
2022-12-18T22:28:08.078Z,42.60
2022-12-18T22:30:35.131Z,42.50
2022-12-18T22:33:04.094Z,41.38
2022-12-18T22:35:33.512Z,42.28
2022-12-18T22:38:02.688Z,44.13
2022-12-18T22:40:31.004Z,41.72
2022-12-18T22:43:01.445Z,43.13
2022-12-18T22:45:29.522Z,44.80
2022-12-18T22:47:57.802Z,46.28
2022-12-18T22:50:26.002Z,45.60
2022-12-18T22:52:55.372Z,48.03
2022-12-18T22:55:23.639Z,42.80
2022-12-18T22:57:51.664Z,45.38
2022-12-18T23:00:23.990Z,46.22
2022-12-18T23:02:59.818Z,41.58
2022-12-18T23:05:30.317Z,41.08
2022-12-18T23:08:00.397Z,43.15
2022-12-18T23:10:29.202Z,40.33
2022-12-18T23:12:57.318Z,42.65
2022-12-18T23:15:28.113Z,45.30
2022-12-18T23:17:58.795Z,38.83
2022-12-18T23:20:28.304Z,43.92
2022-12-18T23:22:56.409Z,43.78
2022-12-18T23:25:26.020Z,42.17
2022-12-18T23:27:54.246Z,45.33
2022-12-18T23:30:22.297Z,39.83
2022-12-18T23:32:50.315Z,43.60
2022-12-18T23:35:18.978Z,45.97
2022-12-18T23:38:04.188Z,45.72
2022-12-18T23:40:33.730Z,42.28
2022-12-18T23:43:01.854Z,49.92
2022-12-18T23:45:30.029Z,41.63
2022-12-18T23:47:58.094Z,45.55
2022-12-18T23:50:30.003Z,39.25
2022-12-18T23:53:03.775Z,48.90
2022-12-18T23:55:40.562Z,47.03
2022-12-18T23:58:10.091Z,43.90
